createdAt,value
2018-06-05T00:00:21.179Z,100531.81
2018-06-05T00:02:50.275Z,100529.94
2018-06-05T00:05:19.405Z,100534.56
2018-06-05T00:07:48.512Z,100533.73
2018-06-05T00:10:17.601Z,100528.59
2018-06-05T00:12:46.741Z,100532.75
2018-06-05T00:15:15.885Z,100527.82
2018-06-05T00:17:45.001Z,100521.68
2018-06-05T00:20:14.097Z,100526.42
2018-06-05T00:22:43.200Z,100519.69
2018-06-05T00:25:12.306Z,100528.48
2018-06-05T00:27:41.439Z,100523.66
2018-06-05T00:30:10.541Z,100529.19
2018-06-05T00:32:39.661Z,100523.16
2018-06-05T00:35:08.776Z,100519.70
2018-06-05T00:37:37.882Z,100516.17
2018-06-05T00:40:06.996Z,100516.50
2018-06-05T00:42:36.118Z,100520.00
2018-06-05T00:45:05.237Z,100516.50
2018-06-05T00:47:34.349Z,100521.87
2018-06-05T00:50:03.498Z,100528.70
2018-06-05T00:52:32.600Z,100533.66
2018-06-05T00:55:01.705Z,100527.88
2018-06-05T00:57:30.797Z,100525.02
2018-06-05T00:59:59.901Z,100530.83
2018-06-05T01:02:29.021Z,100526.20
2018-06-05T01:04:58.131Z,100525.96
2018-06-05T01:07:27.245Z,100534.38
2018-06-05T01:09:56.345Z,100539.61
2018-06-05T01:12:25.459Z,100532.66
2018-06-05T01:14:54.556Z,100530.70
2018-06-05T01:17:23.680Z,100530.75
2018-06-05T01:19:52.785Z,100538.74
2018-06-05T01:22:21.873Z,100540.12
2018-06-05T01:24:50.981Z,100543.75
2018-06-05T01:27:20.377Z,100543.34
2018-06-05T01:29:49.473Z,100544.52
2018-06-05T01:32:18.557Z,100544.67
2018-06-05T01:34:47.672Z,100540.33
2018-06-05T01:37:16.773Z,100542.02
2018-06-05T01:39:45.913Z,100545.59
2018-06-05T01:42:15.009Z,100546.51
2018-06-05T01:44:44.102Z,100543.34
2018-06-05T01:47:13.223Z,100544.94
2018-06-05T01:49:42.293Z,100550.33
2018-06-05T01:52:11.394Z,100552.92
2018-06-05T01:54:40.479Z,100557.33
2018-06-05T01:57:09.573Z,100558.93
2018-06-05T01:59:38.672Z,100556.08
2018-06-05T02:02:07.842Z,100558.69
2018-06-05T02:04:36.950Z,100559.88
2018-06-05T02:07:06.151Z,100560.16
2018-06-05T02:09:35.253Z,100561.33
2018-06-05T02:12:04.349Z,100564.64
2018-06-05T02:14:33.473Z,100557.69
2018-06-05T02:17:02.561Z,100556.54
2018-06-05T02:19:31.677Z,100573.16
2018-06-05T02:22:00.856Z,100569.50
2018-06-05T02:24:29.986Z,100567.53
2018-06-05T02:26:59.362Z,100570.19
2018-06-05T02:29:28.457Z,100571.27
2018-06-05T02:31:57.557Z,100574.52
2018-06-05T02:34:26.665Z,100564.10
2018-06-05T02:36:55.759Z,100565.45
2018-06-05T02:39:24.861Z,100567.47
2018-06-05T02:41:54.013Z,100570.34
2018-06-05T02:44:23.125Z,100568.55
2018-06-05T02:46:52.238Z,100565.52
2018-06-05T02:49:21.329Z,100572.50
2018-06-05T02:51:50.470Z,100567.59
2018-06-05T02:54:19.565Z,100569.41
2018-06-05T02:56:48.690Z,100571.66
2018-06-05T02:59:17.777Z,100575.97
2018-06-05T03:01:46.886Z,100572.32
2018-06-05T03:04:16.005Z,100568.31
2018-06-05T03:06:45.105Z,100573.60
2018-06-05T03:09:14.214Z,100577.92
2018-06-05T03:11:43.313Z,100574.80
2018-06-05T03:14:12.421Z,100579.42
2018-06-05T03:16:41.529Z,100582.39
2018-06-05T03:19:10.641Z,100590.69
2018-06-05T03:21:39.749Z,100594.68
2018-06-05T03:24:08.853Z,100593.41
2018-06-05T03:26:37.951Z,100591.16
2018-06-05T03:29:07.069Z,100593.37
2018-06-05T03:31:36.179Z,100595.70
2018-06-05T03:34:05.350Z,100599.37
2018-06-05T03:36:34.385Z,100597.30
2018-06-05T03:39:04.625Z,100597.72
2018-06-05T03:41:33.734Z,100597.61
2018-06-05T03:44:02.840Z,100599.22
2018-06-05T03:46:31.964Z,100599.52
2018-06-05T03:49:01.109Z,100608.12
2018-06-05T03:51:30.209Z,100607.52
2018-06-05T03:53:59.312Z,100603.05
2018-06-05T03:56:28.453Z,100603.83
2018-06-05T03:58:57.505Z,100609.05
2018-06-05T04:01:26.605Z,100604.67
2018-06-05T04:03:55.746Z,100612.09
2018-06-05T04:06:24.833Z,100608.63
2018-06-05T04:08:53.929Z,100612.79
2018-06-05T04:11:23.025Z,100616.87
2018-06-05T04:13:52.141Z,100616.39
2018-06-05T04:16:21.245Z,100616.50
2018-06-05T04:18:50.345Z,100621.30
2018-06-05T04:21:19.448Z,100622.41
2018-06-05T04:23:48.594Z,100623.31
2018-06-05T04:26:17.777Z,100625.14
2018-06-05T04:28:46.882Z,100632.25
2018-06-05T04:31:15.986Z,100627.95
2018-06-05T04:33:45.085Z,100627.45
2018-06-05T04:36:14.233Z,100625.72
2018-06-05T04:38:43.293Z,100624.31
2018-06-05T04:41:12.402Z,100618.94
2018-06-05T04:43:41.521Z,100626.23
2018-06-05T04:46:10.605Z,100625.11
2018-06-05T04:48:39.709Z,100628.02
2018-06-05T04:51:08.825Z,100623.05
2018-06-05T04:53:37.927Z,100629.66
2018-06-05T04:56:07.138Z,100629.55
2018-06-05T04:58:36.248Z,100637.06
2018-06-05T05:01:05.394Z,100633.59
2018-06-05T05:03:34.485Z,100627.25
2018-06-05T05:06:03.606Z,100631.30
2018-06-05T05:08:32.702Z,100628.15
2018-06-05T05:11:01.830Z,100635.24
2018-06-05T05:13:30.925Z,100630.98
2018-06-05T05:16:00.026Z,100633.22
2018-06-05T05:18:29.142Z,100642.41
2018-06-05T05:20:58.249Z,100640.05
2018-06-05T05:23:27.356Z,100636.78
2018-06-05T05:25:56.466Z,100642.91
2018-06-05T05:28:25.564Z,100646.23
2018-06-05T05:30:54.750Z,100643.43
2018-06-05T05:33:23.794Z,100644.02
2018-06-05T05:35:53.016Z,100641.39
2018-06-05T05:38:22.148Z,100638.75
2018-06-05T05:40:51.297Z,100644.95
2018-06-05T05:43:20.405Z,100644.02
2018-06-05T05:45:49.517Z,100650.20
2018-06-05T05:48:18.622Z,100652.92
2018-06-05T05:50:47.736Z,100651.78
2018-06-05T05:53:16.844Z,100651.33
2018-06-05T05:55:45.967Z,100662.22
2018-06-05T05:58:15.077Z,100655.24
2018-06-05T06:00:44.227Z,100656.91
2018-06-05T06:03:13.345Z,100658.88
2018-06-05T06:05:42.447Z,100659.28
2018-06-05T06:08:11.547Z,100655.98
2018-06-05T06:10:40.637Z,100657.87
2018-06-05T06:13:09.739Z,100671.44
2018-06-05T06:15:38.842Z,100668.96
2018-06-05T06:18:08.081Z,100670.02
2018-06-05T06:20:37.163Z,100665.66
2018-06-05T06:23:06.350Z,100658.70
2018-06-05T06:25:35.454Z,100658.44
2018-06-05T06:28:04.573Z,100664.79
2018-06-05T06:30:33.677Z,100660.43
2018-06-05T06:33:02.773Z,100654.87
2018-06-05T06:35:31.877Z,100666.03
2018-06-05T06:38:00.957Z,100663.63
2018-06-05T06:40:30.073Z,100666.03
2018-06-05T06:42:59.169Z,100661.33
2018-06-05T06:45:28.269Z,100661.20
2018-06-05T06:47:57.393Z,100666.36
2018-06-05T06:50:26.709Z,100669.48
2018-06-05T06:52:55.838Z,100670.63
2018-06-05T06:55:24.907Z,100671.92
2018-06-05T06:57:54.037Z,100679.83
2018-06-05T07:00:23.142Z,100678.81
2018-06-05T07:02:52.242Z,100684.04
2018-06-05T07:05:21.349Z,100683.70
2018-06-05T07:07:50.449Z,100687.97
2018-06-05T07:10:19.550Z,100688.28
2018-06-05T07:12:48.681Z,100686.59
2018-06-05T07:15:17.777Z,100688.55
2018-06-05T07:17:46.889Z,100685.70
2018-06-05T07:20:15.974Z,100689.16
2018-06-05T07:22:45.094Z,100686.03
2018-06-05T07:25:14.225Z,100691.18
2018-06-05T07:27:43.337Z,100680.30
2018-06-05T07:30:12.457Z,100685.12
2018-06-05T07:32:41.525Z,100689.86
2018-06-05T07:35:10.637Z,100686.16
2018-06-05T07:37:39.749Z,100691.43
2018-06-05T07:40:08.959Z,100690.16
2018-06-05T07:42:38.049Z,100689.03
2018-06-05T07:45:07.149Z,100691.37
2018-06-05T07:47:36.304Z,100686.33
2018-06-05T07:50:05.441Z,100689.64
2018-06-05T07:52:34.549Z,100684.78
2018-06-05T07:55:03.705Z,100688.61
2018-06-05T07:57:32.797Z,100686.25
2018-06-05T08:00:02.090Z,100682.16
2018-06-05T08:02:31.204Z,100685.45
2018-06-05T08:05:00.329Z,100681.05
2018-06-05T08:07:29.473Z,100686.89
2018-06-05T08:09:58.577Z,100695.03
2018-06-05T08:12:27.713Z,100692.47
2018-06-05T08:14:56.809Z,100695.14
2018-06-05T08:17:25.949Z,100691.36
2018-06-05T08:19:55.081Z,100696.72
2018-06-05T08:22:25.820Z,100681.78
2018-06-05T08:24:54.931Z,100686.69
2018-06-05T08:27:24.021Z,100690.53
2018-06-05T08:29:53.213Z,100693.83
2018-06-05T08:32:22.320Z,100689.75
2018-06-05T08:34:51.424Z,100693.83
2018-06-05T08:37:20.525Z,100695.69
2018-06-05T08:39:49.664Z,100692.51
2018-06-05T08:42:18.745Z,100695.52
2018-06-05T08:44:47.857Z,100699.06
2018-06-05T08:47:16.955Z,100697.91
2018-06-05T08:49:46.049Z,100694.95
2018-06-05T08:52:15.193Z,100694.57
2018-06-05T08:54:44.285Z,100696.68
2018-06-05T08:57:13.394Z,100695.53
2018-06-05T08:59:42.485Z,100697.86
2018-06-05T09:02:11.586Z,100708.47
2018-06-05T09:04:40.685Z,100710.21
2018-06-05T09:07:10.139Z,100709.25
2018-06-05T09:09:39.240Z,100711.05
2018-06-05T09:12:08.376Z,100712.98
2018-06-05T09:14:37.534Z,100713.64
2018-06-05T09:17:06.645Z,100712.36
2018-06-05T09:19:35.745Z,100714.59
2018-06-05T09:22:04.904Z,100715.40
2018-06-05T09:24:34.114Z,100712.89
2018-06-05T09:27:03.241Z,100717.42
2018-06-05T09:29:32.381Z,100710.31
2018-06-05T09:32:01.522Z,100708.13
2018-06-05T09:34:30.616Z,100710.25
2018-06-05T09:36:59.802Z,100700.16
2018-06-05T09:39:28.900Z,100710.88
2018-06-05T09:41:57.998Z,100704.89
2018-06-05T09:44:27.082Z,100705.63
2018-06-05T09:46:56.228Z,100712.33
2018-06-05T09:49:25.313Z,100701.77
2018-06-05T09:51:54.429Z,100703.62
2018-06-05T09:54:23.521Z,100699.72
2018-06-05T09:56:52.638Z,100697.76
2018-06-05T09:59:21.745Z,100698.63
2018-06-05T10:01:50.841Z,100696.88
2018-06-05T10:04:19.943Z,100695.51
2018-06-05T10:06:49.030Z,100694.81
2018-06-05T10:09:18.154Z,100684.13
2018-06-05T10:11:47.249Z,100691.20
2018-06-05T10:14:16.341Z,100689.05
2018-06-05T10:16:45.443Z,100697.00
2018-06-05T10:19:14.552Z,100694.67
2018-06-05T10:21:43.644Z,100692.73
2018-06-05T10:24:12.781Z,100688.75
2018-06-05T10:26:41.887Z,100685.45
2018-06-05T10:29:11.002Z,100686.02
2018-06-05T10:31:40.134Z,100688.37
2018-06-05T10:34:09.239Z,100679.34
2018-06-05T10:36:38.350Z,100682.59
2018-06-05T10:39:08.169Z,100681.48
2018-06-05T10:41:37.297Z,100680.34
2018-06-05T10:44:06.388Z,100678.52
2018-06-05T10:46:35.502Z,100676.02
2018-06-05T10:49:04.601Z,100663.81
2018-06-05T10:51:33.725Z,100662.38
2018-06-05T10:54:02.826Z,100665.33
2018-06-05T10:56:31.925Z,100662.34
2018-06-05T10:59:01.067Z,100661.23
2018-06-05T11:01:30.141Z,100657.13
2018-06-05T11:03:59.226Z,100660.20
2018-06-05T11:06:28.328Z,100651.84
2018-06-05T11:08:57.429Z,100656.20
2018-06-05T11:11:26.557Z,100643.31
2018-06-05T11:13:55.678Z,100649.02
2018-06-05T11:16:24.784Z,100632.73
2018-06-05T11:18:53.949Z,100634.68
2018-06-05T11:21:23.055Z,100631.52
2018-06-05T11:23:52.149Z,100629.48
2018-06-05T11:26:21.253Z,100633.16
2018-06-05T11:28:50.357Z,100626.79
2018-06-05T11:31:19.493Z,100626.63
2018-06-05T11:33:48.584Z,100625.50
2018-06-05T11:36:17.706Z,100626.59
2018-06-05T11:38:46.813Z,100624.53
2018-06-05T11:41:15.922Z,100622.41
2018-06-05T11:43:45.021Z,100614.58
2018-06-05T11:46:14.117Z,100614.09
2018-06-05T11:48:43.248Z,100612.25
2018-06-05T11:51:12.361Z,100614.74
2018-06-05T11:53:41.461Z,100607.50
2018-06-05T11:56:10.578Z,100602.11
2018-06-05T11:58:39.705Z,100598.59
2018-06-05T12:01:08.807Z,100596.05
2018-06-05T12:03:37.889Z,100594.23
2018-06-05T12:06:07.029Z,100597.75
2018-06-05T12:08:36.153Z,100588.23
2018-06-05T12:11:05.281Z,100591.33
2018-06-05T12:13:34.365Z,100580.69
2018-06-05T12:16:03.497Z,100582.00
2018-06-05T12:18:32.594Z,100581.46
2018-06-05T12:21:01.703Z,100572.69
2018-06-05T12:23:30.791Z,100579.25
2018-06-05T12:26:00.324Z,100572.56
2018-06-05T12:28:29.430Z,100574.75
2018-06-05T12:30:58.562Z,100572.73
2018-06-05T12:33:27.741Z,100566.03
2018-06-05T12:35:56.897Z,100567.09
2018-06-05T12:38:25.994Z,100561.17
2018-06-05T12:40:55.089Z,100560.50
2018-06-05T12:43:24.193Z,100555.36
2018-06-05T12:45:53.272Z,100559.58
2018-06-05T12:48:22.476Z,100564.16
2018-06-05T12:50:51.629Z,100563.19
2018-06-05T12:53:20.799Z,100563.89
2018-06-05T12:55:49.889Z,100563.92
2018-06-05T12:58:19.001Z,100562.59
2018-06-05T13:00:48.112Z,100557.56
2018-06-05T13:03:17.189Z,100555.70
2018-06-05T13:05:46.301Z,100553.75
2018-06-05T13:08:15.485Z,100556.92
2018-06-05T13:10:44.601Z,100542.95
2018-06-05T13:13:13.697Z,100552.92
2018-06-05T13:15:42.815Z,100549.31
2018-06-05T13:18:11.933Z,100551.31
2018-06-05T13:20:41.037Z,100546.03
2018-06-05T13:23:10.213Z,100536.06
2018-06-05T13:25:39.257Z,100537.31
2018-06-05T13:28:08.417Z,100542.98
2018-06-05T13:30:37.581Z,100543.61
2018-06-05T13:33:06.710Z,100542.13
2018-06-05T13:35:35.837Z,100542.68
2018-06-05T13:38:04.949Z,100539.89
2018-06-05T13:40:34.053Z,100537.18
2018-06-05T13:43:03.160Z,100544.34
2018-06-05T13:45:32.260Z,100538.01
2018-06-05T13:48:01.340Z,100536.13
2018-06-05T13:50:30.465Z,100543.42
2018-06-05T13:52:59.571Z,100541.99
2018-06-05T13:55:28.681Z,100534.57
2018-06-05T13:57:57.764Z,100537.66
2018-06-05T14:00:26.885Z,100526.76
2018-06-05T14:02:55.988Z,100525.95
2018-06-05T14:05:25.078Z,100523.41
2018-06-05T14:07:54.197Z,100516.95
2018-06-05T14:10:23.286Z,100520.58
2018-06-05T14:12:52.389Z,100521.55
2018-06-05T14:15:21.501Z,100513.20
2018-06-05T14:17:50.689Z,100509.83
2018-06-05T14:20:19.800Z,100517.22
2018-06-05T14:22:48.909Z,100512.70
2018-06-05T14:25:18.017Z,100516.91
2018-06-05T14:27:47.157Z,100515.20
2018-06-05T14:30:16.275Z,100509.39
2018-06-05T14:32:45.364Z,100513.23
2018-06-05T14:35:14.481Z,100518.21
2018-06-05T14:37:43.600Z,100505.55
2018-06-05T14:40:12.700Z,100506.13
2018-06-05T14:42:41.781Z,100500.86
2018-06-05T14:45:11.823Z,100493.84
2018-06-05T14:47:40.864Z,100503.00
2018-06-05T14:50:09.961Z,100498.63
2018-06-05T14:52:39.085Z,100493.08
2018-06-05T14:55:08.288Z,100497.84
2018-06-05T14:57:37.422Z,100501.73
2018-06-05T15:00:06.558Z,100492.30
2018-06-05T15:02:35.665Z,100497.02
2018-06-05T15:05:04.802Z,100500.25
2018-06-05T15:07:33.921Z,100500.88
2018-06-05T15:10:03.005Z,100495.13
2018-06-05T15:12:32.101Z,100490.37
2018-06-05T15:15:01.222Z,100491.48
2018-06-05T15:17:30.327Z,100492.64
2018-06-05T15:19:59.441Z,100487.66
2018-06-05T15:22:28.554Z,100488.86
2018-06-05T15:24:57.656Z,100488.41
2018-06-05T15:27:27.813Z,100494.83
2018-06-05T15:29:56.941Z,100488.20
2018-06-05T15:32:26.033Z,100477.61
2018-06-05T15:34:55.179Z,100475.39
2018-06-05T15:37:24.313Z,100481.66
2018-06-05T15:39:53.433Z,100470.02
2018-06-05T15:42:22.573Z,100473.66
2018-06-05T15:44:51.685Z,100472.48
2018-06-05T15:47:20.793Z,100467.19
2018-06-05T15:49:49.897Z,100469.00
2018-06-05T15:52:19.045Z,100469.78
2018-06-05T15:54:48.145Z,100470.90
2018-06-05T15:57:17.525Z,100477.31
2018-06-05T15:59:46.673Z,100462.33
2018-06-05T16:02:15.787Z,100469.78
2018-06-05T16:04:45.011Z,100467.47
2018-06-05T16:07:14.084Z,100465.85
2018-06-05T16:09:43.197Z,100469.05
2018-06-05T16:12:12.350Z,100463.31
2018-06-05T16:14:41.405Z,100461.11
2018-06-05T16:17:10.506Z,100461.97
2018-06-05T16:19:39.601Z,100459.47
2018-06-05T16:22:08.697Z,100461.51
2018-06-05T16:24:37.792Z,100463.03
2018-06-05T16:27:07.029Z,100457.06
2018-06-05T16:29:36.229Z,100456.73
2018-06-05T16:32:05.330Z,100448.16
2018-06-05T16:34:34.461Z,100453.30
2018-06-05T16:37:03.596Z,100449.24
2018-06-05T16:39:32.697Z,100447.42
2018-06-05T16:42:01.825Z,100452.62
2018-06-05T16:44:30.945Z,100448.51
2018-06-05T16:47:00.066Z,100449.38
2018-06-05T16:49:29.161Z,100447.60
2018-06-05T16:51:58.257Z,100444.52
2018-06-05T16:54:27.362Z,100448.98
2018-06-05T16:56:56.456Z,100443.54
2018-06-05T16:59:25.572Z,100441.20
2018-06-05T17:01:54.671Z,100442.14
2018-06-05T17:04:23.794Z,100445.36
2018-06-05T17:06:52.861Z,100453.55
2018-06-05T17:09:21.998Z,100440.63
2018-06-05T17:11:51.128Z,100442.94
2018-06-05T17:14:20.220Z,100433.44
2018-06-05T17:16:49.317Z,100435.76
2018-06-05T17:19:18.409Z,100438.64
2018-06-05T17:21:47.518Z,100447.66
2018-06-05T17:27:13.984Z,100434.77
2018-06-05T17:29:43.046Z,100438.16
2018-06-05T17:32:12.249Z,100432.39
2018-06-05T17:34:41.381Z,100435.12
2018-06-05T17:37:10.522Z,100439.00
2018-06-05T17:39:39.633Z,100443.83
2018-06-05T17:42:08.738Z,100435.88
2018-06-05T17:44:37.841Z,100443.63
2018-06-05T17:47:06.965Z,100444.22
2018-06-05T17:49:36.077Z,100440.21
2018-06-05T17:52:05.239Z,100437.93
2018-06-05T17:54:34.354Z,100436.03
2018-06-05T18:00:00.561Z,100442.53
2018-06-05T18:02:30.215Z,100443.70
2018-06-05T18:04:59.333Z,100438.23
2018-06-05T18:07:28.572Z,100451.77
2018-06-05T18:09:57.712Z,100455.23
2018-06-05T18:12:26.893Z,100456.48
2018-06-05T18:14:56.386Z,100455.75
2018-06-05T18:17:25.505Z,100466.95
2018-06-05T18:19:54.613Z,100460.50
2018-06-05T18:22:23.722Z,100465.55
2018-06-05T18:24:52.829Z,100459.74
2018-06-05T18:27:21.946Z,100459.34
2018-06-05T18:29:51.046Z,100463.50
2018-06-05T18:32:20.162Z,100462.68
2018-06-05T18:34:49.274Z,100462.00
2018-06-05T18:37:18.484Z,100466.48
2018-06-05T18:39:47.536Z,100469.12
2018-06-05T18:42:16.682Z,100470.38
2018-06-05T18:44:45.789Z,100460.84
2018-06-05T18:47:14.921Z,100465.65
2018-06-05T18:49:44.132Z,100462.97
2018-06-05T18:52:13.681Z,100463.96
2018-06-05T18:54:42.905Z,100470.13
2018-06-05T18:57:12.035Z,100469.44
2018-06-05T18:59:41.150Z,100464.70
2018-06-05T19:02:10.294Z,100472.94
2018-06-05T19:04:39.414Z,100479.34
2018-06-05T19:07:08.671Z,100476.94
2018-06-05T19:09:37.742Z,100482.98
2018-06-05T19:12:06.950Z,100483.91
2018-06-05T19:14:36.088Z,100489.99
2018-06-05T19:17:05.335Z,100494.48
2018-06-05T19:19:34.454Z,100494.03
2018-06-05T19:22:03.666Z,100504.86
2018-06-05T19:24:38.441Z,100505.30
2018-06-05T19:27:07.628Z,100507.61
2018-06-05T19:29:36.876Z,100508.94
2018-06-05T19:32:05.894Z,100516.61
2018-06-05T19:34:35.020Z,100519.66
2018-06-05T19:37:04.186Z,100524.39
2018-06-05T19:39:33.336Z,100532.17
2018-06-05T19:42:02.526Z,100535.66
2018-06-05T19:44:31.601Z,100539.27
2018-06-05T19:47:00.734Z,100539.00
2018-06-05T19:49:29.877Z,100539.10
2018-06-05T19:51:59.052Z,100549.69
2018-06-05T19:54:28.146Z,100550.38
2018-06-05T19:56:57.290Z,100562.53
2018-06-05T19:59:26.413Z,100568.69
2018-06-05T20:01:55.516Z,100568.80
2018-06-05T20:04:24.657Z,100572.56
2018-06-05T20:06:53.902Z,100574.19
2018-06-05T20:09:23.933Z,100580.59
2018-06-05T20:11:53.038Z,100578.53
2018-06-05T20:14:22.258Z,100580.72
2018-06-05T20:16:51.380Z,100580.63
2018-06-05T20:19:20.490Z,100579.51
2018-06-05T20:21:49.681Z,100576.52
2018-06-05T20:24:18.925Z,100578.55
2018-06-05T20:26:48.039Z,100577.70
2018-06-05T20:29:18.362Z,100577.23
2018-06-05T20:31:48.390Z,100575.86
2018-06-05T20:34:17.526Z,100581.14
2018-06-05T20:36:46.674Z,100573.98
2018-06-05T20:39:15.782Z,100580.74
2018-06-05T20:41:44.916Z,100587.50
2018-06-05T20:44:14.127Z,100592.33
2018-06-05T20:46:43.245Z,100584.64
2018-06-05T20:49:12.370Z,100590.87
2018-06-05T20:51:41.532Z,100589.65
2018-06-05T20:54:10.688Z,100590.20
2018-06-05T20:56:39.797Z,100589.39
2018-06-05T20:59:08.930Z,100588.36
2018-06-05T21:01:42.699Z,100591.56
2018-06-05T21:04:11.809Z,100596.04
2018-06-05T21:06:40.934Z,100594.77
2018-06-05T21:09:10.078Z,100595.95
2018-06-05T21:11:39.204Z,100595.65
2018-06-05T21:14:08.330Z,100601.52
2018-06-05T21:16:37.468Z,100604.09
2018-06-05T21:19:06.586Z,100597.56
2018-06-05T21:21:35.697Z,100594.92
2018-06-05T21:24:04.909Z,100599.28
2018-06-05T21:26:33.985Z,100601.99
2018-06-05T21:29:03.102Z,100604.00
2018-06-05T21:31:32.233Z,100606.27
2018-06-05T21:34:01.389Z,100606.39
2018-06-05T21:36:30.498Z,100599.67
2018-06-05T21:39:15.949Z,100605.92
2018-06-05T21:41:45.073Z,100601.64
2018-06-05T21:44:14.186Z,100605.02
2018-06-05T21:46:43.301Z,100599.89
2018-06-05T21:49:12.753Z,100605.00
2018-06-05T21:51:41.891Z,100608.58
2018-06-05T21:54:11.049Z,100618.66
2018-06-05T21:56:40.166Z,100612.07
2018-06-05T21:59:09.296Z,100616.45
2018-06-05T22:01:38.410Z,100618.02
2018-06-05T22:04:07.585Z,100616.91
2018-06-05T22:06:36.705Z,100620.71
2018-06-05T22:09:08.174Z,100615.03
2018-06-05T22:11:37.294Z,100612.61
2018-06-05T22:14:06.529Z,100616.34
2018-06-05T22:16:35.653Z,100623.05
2018-06-05T22:19:04.745Z,100625.31
2018-06-05T22:21:33.878Z,100627.45
2018-06-05T22:24:02.990Z,100622.32
2018-06-05T22:26:32.101Z,100623.75
2018-06-05T22:29:01.222Z,100629.12
2018-06-05T22:31:30.337Z,100622.48
2018-06-05T22:33:59.473Z,100622.70
2018-06-05T22:36:28.618Z,100625.62
2018-06-05T22:38:57.770Z,100632.88
2018-06-05T22:41:26.929Z,100631.48
2018-06-05T22:43:56.049Z,100627.14
2018-06-05T22:46:25.189Z,100623.90
2018-06-05T22:48:54.306Z,100624.69
2018-06-05T22:51:23.454Z,100623.27
2018-06-05T22:53:52.581Z,100621.31
2018-06-05T22:56:21.701Z,100618.83
2018-06-05T22:58:50.877Z,100616.72
2018-06-05T23:01:20.590Z,100620.80
2018-06-05T23:03:49.725Z,100628.31
2018-06-05T23:06:18.845Z,100625.62
2018-06-05T23:08:47.988Z,100621.11
2018-06-05T23:11:17.106Z,100628.65
2018-06-05T23:13:46.258Z,100625.69
2018-06-05T23:16:15.378Z,100623.67
2018-06-05T23:18:44.506Z,100630.00
2018-06-05T23:21:13.651Z,100630.19
2018-06-05T23:23:42.785Z,100629.63
2018-06-05T23:26:11.917Z,100623.79
2018-06-05T23:28:41.078Z,100619.91
2018-06-05T23:31:10.226Z,100627.65
2018-06-05T23:33:39.370Z,100625.30
2018-06-05T23:36:08.503Z,100625.70
2018-06-05T23:38:37.635Z,100625.80
2018-06-05T23:41:06.824Z,100621.58
2018-06-05T23:43:35.925Z,100620.42
2018-06-05T23:46:05.053Z,100622.16
2018-06-05T23:48:34.165Z,100614.06
2018-06-05T23:51:03.343Z,100616.61
2018-06-05T23:53:32.453Z,100617.95
2018-06-05T23:56:01.590Z,100623.63
2018-06-05T23:58:30.706Z,100622.04
